sensor_id;sensor_type;location;lat;lon;timestamp;P1;durP1;ratioP1;P2;durP2;ratioP2
19800;SDS011;10060;48.274;12.214;2023-12-20T00:01:27;7.77;;;5.73;;
19800;SDS011;10060;48.274;12.214;2023-12-20T00:04:30;8.90;;;5.30;;
19800;SDS011;10060;48.274;12.214;2023-12-20T00:07:32;7.27;;;5.07;;
19800;SDS011;10060;48.274;12.214;2023-12-20T00:10:34;6.20;;;4.40;;
19800;SDS011;10060;48.274;12.214;2023-12-20T00:13:36;5.30;;;4.43;;
19800;SDS011;10060;48.274;12.214;2023-12-20T00:16:40;5.07;;;4.30;;
19800;SDS011;10060;48.274;12.214;2023-12-20T00:19:42;3.80;;;3.50;;
19800;SDS011;10060;48.274;12.214;2023-12-20T00:22:44;4.27;;;3.30;;
19800;SDS011;10060;48.274;12.214;2023-12-20T00:25:46;3.40;;;3.10;;
19800;SDS011;10060;48.274;12.214;2023-12-20T00:28:48;12.47;;;8.80;;
19800;SDS011;10060;48.274;12.214;2023-12-20T00:31:52;8.77;;;6.53;;
19800;SDS011;10060;48.274;12.214;2023-12-20T00:34:54;5.17;;;3.87;;
19800;SDS011;10060;48.274;12.214;2023-12-20T00:37:57;5.07;;;4.10;;
19800;SDS011;10060;48.274;12.214;2023-12-20T00:41:00;5.47;;;4.13;;
19800;SDS011;10060;48.274;12.214;2023-12-20T00:44:02;5.03;;;3.67;;
19800;SDS011;10060;48.274;12.214;2023-12-20T00:47:06;4.23;;;3.47;;
19800;SDS011;10060;48.274;12.214;2023-12-20T00:50:08;4.23;;;3.53;;
19800;SDS011;10060;48.274;12.214;2023-12-20T00:53:10;4.60;;;3.30;;
19800;SDS011;10060;48.274;12.214;2023-12-20T00:56:12;3.77;;;3.27;;
19800;SDS011;10060;48.274;12.214;2023-12-20T00:59:15;4.20;;;3.13;;
19800;SDS011;10060;48.274;12.214;2023-12-20T01:02:18;3.97;;;2.87;;
19800;SDS011;10060;48.274;12.214;2023-12-20T01:05:20;3.73;;;3.30;;
19800;SDS011;10060;48.274;12.214;2023-12-20T01:08:23;3.27;;;2.97;;
19800;SDS011;10060;48.274;12.214;2023-12-20T01:11:25;3.73;;;3.27;;
19800;SDS011;10060;48.274;12.214;2023-12-20T01:14:28;4.40;;;3.40;;
19800;SDS011;10060;48.274;12.214;2023-12-20T01:17:32;4.53;;;3.33;;
19800;SDS011;10060;48.274;12.214;2023-12-20T01:20:34;3.20;;;2.90;;
19800;SDS011;10060;48.274;12.214;2023-12-20T01:23:36;3.87;;;3.40;;
19800;SDS011;10060;48.274;12.214;2023-12-20T01:26:38;6.03;;;2.87;;
19800;SDS011;10060;48.274;12.214;2023-12-20T01:29:40;3.00;;;2.77;;
19800;SDS011;10060;48.274;12.214;2023-12-20T01:32:44;5.13;;;3.13;;
19800;SDS011;10060;48.274;12.214;2023-12-20T01:35:46;4.93;;;2.90;;
19800;SDS011;10060;48.274;12.214;2023-12-20T01:38:48;3.30;;;3.00;;
19800;SDS011;10060;48.274;12.214;2023-12-20T01:41:50;3.80;;;3.07;;
19800;SDS011;10060;48.274;12.214;2023-12-20T01:44:52;3.33;;;3.03;;
19800;SDS011;10060;48.274;12.214;2023-12-20T01:47:56;3.03;;;2.73;;
19800;SDS011;10060;48.274;12.214;2023-12-20T01:50:59;3.67;;;3.37;;
19800;SDS011;10060;48.274;12.214;2023-12-20T01:54:01;3.40;;;3.10;;
19800;SDS011;10060;48.274;12.214;2023-12-20T01:57:04;3.37;;;3.07;;
19800;SDS011;10060;48.274;12.214;2023-12-20T02:00:06;3.80;;;3.40;;
19800;SDS011;10060;48.274;12.214;2023-12-20T02:03:10;3.20;;;2.90;;
19800;SDS011;10060;48.274;12.214;2023-12-20T02:06:13;3.37;;;3.07;;
19800;SDS011;10060;48.274;12.214;2023-12-20T02:09:15;2.90;;;2.60;;
19800;SDS011;10060;48.274;12.214;2023-12-20T02:12:18;3.80;;;3.33;;
19800;SDS011;10060;48.274;12.214;2023-12-20T02:15:20;3.70;;;3.10;;
19800;SDS011;10060;48.274;12.214;2023-12-20T02:18:24;3.93;;;3.30;;
19800;SDS011;10060;48.274;12.214;2023-12-20T02:21:32;3.30;;;2.97;;
19800;SDS011;10060;48.274;12.214;2023-12-20T02:24:35;3.47;;;3.17;;
19800;SDS011;10060;48.274;12.214;2023-12-20T02:27:37;3.50;;;2.97;;
19800;SDS011;10060;48.274;12.214;2023-12-20T02:30:40;3.70;;;3.10;;
19800;SDS011;10060;48.274;12.214;2023-12-20T02:33:42;4.10;;;3.07;;
19800;SDS011;10060;48.274;12.214;2023-12-20T02:36:45;3.23;;;2.93;;
19800;SDS011;10060;48.274;12.214;2023-12-20T02:39:47;5.00;;;3.13;;
19800;SDS011;10060;48.274;12.214;2023-12-20T02:42:50;3.80;;;3.10;;
19800;SDS011;10060;48.274;12.214;2023-12-20T02:45:52;4.20;;;3.30;;
19800;SDS011;10060;48.274;12.214;2023-12-20T02:48:54;4.43;;;3.10;;
19800;SDS011;10060;48.274;12.214;2023-12-20T02:51:57;4.00;;;3.17;;
19800;SDS011;10060;48.274;12.214;2023-12-20T02:54:59;3.23;;;2.93;;
19800;SDS011;10060;48.274;12.214;2023-12-20T02:58:01;4.53;;;3.00;;
19800;SDS011;10060;48.274;12.214;2023-12-20T03:01:03;3.30;;;3.00;;
19800;SDS011;10060;48.274;12.214;2023-12-20T03:04:05;3.63;;;3.30;;
19800;SDS011;10060;48.274;12.214;2023-12-20T03:07:09;4.50;;;3.10;;
19800;SDS011;10060;48.274;12.214;2023-12-20T03:13:18;3.50;;;2.40;;
19800;SDS011;10060;48.274;12.214;2023-12-20T03:16:20;3.17;;;2.67;;
19800;SDS011;10060;48.274;12.214;2023-12-20T03:19:22;3.30;;;2.80;;
19800;SDS011;10060;48.274;12.214;2023-12-20T03:22:26;2.73;;;2.53;;
19800;SDS011;10060;48.274;12.214;2023-12-20T03:25:28;3.00;;;2.70;;
19800;SDS011;10060;48.274;12.214;2023-12-20T03:28:30;2.90;;;2.60;;
19800;SDS011;10060;48.274;12.214;2023-12-20T03:31:32;3.70;;;2.87;;
19800;SDS011;10060;48.274;12.214;2023-12-20T03:34:34;4.70;;;2.90;;
19800;SDS011;10060;48.274;12.214;2023-12-20T03:37:37;3.40;;;3.00;;
19800;SDS011;10060;48.274;12.214;2023-12-20T03:40:39;4.03;;;3.10;;
19800;SDS011;10060;48.274;12.214;2023-12-20T03:43:42;3.97;;;3.10;;
19800;SDS011;10060;48.274;12.214;2023-12-20T03:46:44;3.57;;;3.03;;
19800;SDS011;10060;48.274;12.214;2023-12-20T03:49:46;3.10;;;2.73;;
19800;SDS011;10060;48.274;12.214;2023-12-20T03:52:49;3.37;;;3.00;;
19800;SDS011;10060;48.274;12.214;2023-12-20T03:55:51;3.47;;;2.90;;
19800;SDS011;10060;48.274;12.214;2023-12-20T03:58:53;3.23;;;2.93;;
19800;SDS011;10060;48.274;12.214;2023-12-20T04:01:56;4.00;;;3.00;;
19800;SDS011;10060;48.274;12.214;2023-12-20T04:04:58;5.27;;;3.03;;
19800;SDS011;10060;48.274;12.214;2023-12-20T04:08:02;3.90;;;3.00;;
19800;SDS011;10060;48.274;12.214;2023-12-20T04:11:04;4.03;;;2.90;;
19800;SDS011;10060;48.274;12.214;2023-12-20T04:14:06;3.37;;;3.07;;
19800;SDS011;10060;48.274;12.214;2023-12-20T04:17:08;3.00;;;2.70;;
19800;SDS011;10060;48.274;12.214;2023-12-20T04:20:10;2.87;;;2.57;;
19800;SDS011;10060;48.274;12.214;2023-12-20T04:23:14;3.77;;;2.57;;
19800;SDS011;10060;48.274;12.214;2023-12-20T04:26:16;2.80;;;2.50;;
19800;SDS011;10060;48.274;12.214;2023-12-20T04:29:18;4.97;;;3.03;;
19800;SDS011;10060;48.274;12.214;2023-12-20T04:32:20;4.13;;;2.50;;
19800;SDS011;10060;48.274;12.214;2023-12-20T04:35:22;3.07;;;2.60;;
19800;SDS011;10060;48.274;12.214;2023-12-20T04:38:25;2.60;;;2.40;;
19800;SDS011;10060;48.274;12.214;2023-12-20T04:41:27;3.40;;;2.20;;
19800;SDS011;10060;48.274;12.214;2023-12-20T04:44:30;2.60;;;2.40;;
19800;SDS011;10060;48.274;12.214;2023-12-20T04:47:32;3.13;;;2.67;;
19800;SDS011;10060;48.274;12.214;2023-12-20T04:50:34;2.90;;;2.67;;
19800;SDS011;10060;48.274;12.214;2023-12-20T04:53:37;2.33;;;2.17;;
19800;SDS011;10060;48.274;12.214;2023-12-20T04:56:39;3.57;;;2.87;;
19800;SDS011;10060;48.274;12.214;2023-12-20T04:59:41;2.90;;;2.60;;
19800;SDS011;10060;48.274;12.214;2023-12-20T05:02:43;2.80;;;2.40;;
19800;SDS011;10060;48.274;12.214;2023-12-20T05:05:45;2.80;;;2.50;;
19800;SDS011;10060;48.274;12.214;2023-12-20T05:08:49;2.80;;;2.50;;
19800;SDS011;10060;48.274;12.214;2023-12-20T05:11:51;2.90;;;2.60;;
19800;SDS011;10060;48.274;12.214;2023-12-20T05:14:53;2.57;;;2.37;;
19800;SDS011;10060;48.274;12.214;2023-12-20T05:17:55;2.80;;;2.60;;
19800;SDS011;10060;48.274;12.214;2023-12-20T05:20:57;2.47;;;2.27;;
19800;SDS011;10060;48.274;12.214;2023-12-20T05:24:01;2.80;;;2.50;;
19800;SDS011;10060;48.274;12.214;2023-12-20T05:27:03;3.23;;;2.60;;
19800;SDS011;10060;48.274;12.214;2023-12-20T05:30:06;2.27;;;2.13;;
19800;SDS011;10060;48.274;12.214;2023-12-20T05:33:08;2.87;;;2.60;;
19800;SDS011;10060;48.274;12.214;2023-12-20T05:36:10;3.30;;;2.83;;
19800;SDS011;10060;48.274;12.214;2023-12-20T05:39:16;3.40;;;2.80;;
19800;SDS011;10060;48.274;12.214;2023-12-20T05:42:18;3.30;;;3.00;;
19800;SDS011;10060;48.274;12.214;2023-12-20T05:45:20;3.77;;;3.37;;
19800;SDS011;10060;48.274;12.214;2023-12-20T05:48:22;3.80;;;3.40;;
19800;SDS011;10060;48.274;12.214;2023-12-20T05:51:24;4.60;;;3.90;;
19800;SDS011;10060;48.274;12.214;2023-12-20T05:54:28;4.70;;;3.90;;
19800;SDS011;10060;48.274;12.214;2023-12-20T05:57:30;5.53;;;3.93;;
19800;SDS011;10060;48.274;12.214;2023-12-20T06:00:32;3.90;;;3.57;;
19800;SDS011;10060;48.274;12.214;2023-12-20T06:03:34;5.73;;;4.70;;
19800;SDS011;10060;48.274;12.214;2023-12-20T06:06:40;5.93;;;4.57;;
19800;SDS011;10060;48.274;12.214;2023-12-20T06:09:43;4.80;;;3.97;;
19800;SDS011;10060;48.274;12.214;2023-12-20T06:12:45;5.20;;;4.20;;
19800;SDS011;10060;48.274;12.214;2023-12-20T06:15:50;6.50;;;4.43;;
19800;SDS011;10060;48.274;12.214;2023-12-20T06:18:53;4.00;;;3.60;;
19800;SDS011;10060;48.274;12.214;2023-12-20T06:21:55;5.47;;;4.07;;
19800;SDS011;10060;48.274;12.214;2023-12-20T06:24:58;5.00;;;4.23;;
19800;SDS011;10060;48.274;12.214;2023-12-20T06:28:00;4.77;;;4.00;;
19800;SDS011;10060;48.274;12.214;2023-12-20T06:31:02;5.10;;;4.43;;
19800;SDS011;10060;48.274;12.214;2023-12-20T06:34:05;5.77;;;4.27;;
19800;SDS011;10060;48.274;12.214;2023-12-20T06:37:07;5.10;;;4.10;;
19800;SDS011;10060;48.274;12.214;2023-12-20T06:40:11;5.30;;;4.20;;
19800;SDS011;10060;48.274;12.214;2023-12-20T06:43:13;5.30;;;4.63;;
19800;SDS011;10060;48.274;12.214;2023-12-20T06:46:15;4.30;;;3.70;;
19800;SDS011;10060;48.274;12.214;2023-12-20T06:49:17;4.40;;;3.80;;
19800;SDS011;10060;48.274;12.214;2023-12-20T06:52:19;5.97;;;4.23;;
19800;SDS011;10060;48.274;12.214;2023-12-20T06:55:23;4.57;;;3.70;;
19800;SDS011;10060;48.274;12.214;2023-12-20T06:58:25;5.23;;;4.07;;
19800;SDS011;10060;48.274;12.214;2023-12-20T07:01:27;5.17;;;4.20;;
19800;SDS011;10060;48.274;12.214;2023-12-20T07:04:29;6.00;;;4.00;;
19800;SDS011;10060;48.274;12.214;2023-12-20T07:07:31;4.90;;;4.10;;
19800;SDS011;10060;48.274;12.214;2023-12-20T07:10:35;3.87;;;3.47;;
19800;SDS011;10060;48.274;12.214;2023-12-20T07:13:37;5.57;;;4.47;;
19800;SDS011;10060;48.274;12.214;2023-12-20T07:16:39;5.03;;;4.10;;
19800;SDS011;10060;48.274;12.214;2023-12-20T07:19:41;5.13;;;4.20;;
19800;SDS011;10060;48.274;12.214;2023-12-20T07:22:44;4.37;;;3.80;;
19800;SDS011;10060;48.274;12.214;2023-12-20T07:25:47;5.60;;;4.70;;
19800;SDS011;10060;48.274;12.214;2023-12-20T07:28:49;9.67;;;4.27;;
19800;SDS011;10060;48.274;12.214;2023-12-20T07:31:52;5.27;;;4.27;;
19800;SDS011;10060;48.274;12.214;2023-12-20T07:34:54;4.43;;;3.37;;
19800;SDS011;10060;48.274;12.214;2023-12-20T07:37:56;5.20;;;4.40;;
19800;SDS011;10060;48.274;12.214;2023-12-20T07:40:59;6.83;;;4.33;;
19800;SDS011;10060;48.274;12.214;2023-12-20T07:44:02;6.53;;;4.50;;
19800;SDS011;10060;48.274;12.214;2023-12-20T07:47:04;4.50;;;3.60;;
19800;SDS011;10060;48.274;12.214;2023-12-20T07:50:06;5.83;;;4.77;;
19800;SDS011;10060;48.274;12.214;2023-12-20T07:53:08;6.90;;;5.07;;
19800;SDS011;10060;48.274;12.214;2023-12-20T07:56:15;6.07;;;4.53;;
19800;SDS011;10060;48.274;12.214;2023-12-20T07:59:17;5.93;;;4.90;;
19800;SDS011;10060;48.274;12.214;2023-12-20T08:02:19;6.50;;;4.77;;
19800;SDS011;10060;48.274;12.214;2023-12-20T08:05:21;6.67;;;4.90;;
19800;SDS011;10060;48.274;12.214;2023-12-20T08:08:23;5.53;;;4.57;;
19800;SDS011;10060;48.274;12.214;2023-12-20T08:11:27;6.63;;;5.07;;
19800;SDS011;10060;48.274;12.214;2023-12-20T08:14:29;5.50;;;4.33;;
19800;SDS011;10060;48.274;12.214;2023-12-20T08:17:31;4.80;;;4.17;;
19800;SDS011;10060;48.274;12.214;2023-12-20T08:20:33;4.40;;;4.00;;
19800;SDS011;10060;48.274;12.214;2023-12-20T08:23:35;5.10;;;3.60;;
19800;SDS011;10060;48.274;12.214;2023-12-20T08:26:39;7.30;;;4.70;;
19800;SDS011;10060;48.274;12.214;2023-12-20T08:29:41;5.97;;;3.87;;
19800;SDS011;10060;48.274;12.214;2023-12-20T08:32:45;4.33;;;3.93;;
19800;SDS011;10060;48.274;12.214;2023-12-20T08:35:47;4.07;;;3.60;;
19800;SDS011;10060;48.274;12.214;2023-12-20T08:38:49;4.00;;;3.60;;
19800;SDS011;10060;48.274;12.214;2023-12-20T08:41:53;3.90;;;3.23;;
19800;SDS011;10060;48.274;12.214;2023-12-20T08:44:55;3.50;;;3.20;;
19800;SDS011;10060;48.274;12.214;2023-12-20T08:47:57;6.10;;;3.50;;
19800;SDS011;10060;48.274;12.214;2023-12-20T08:50:59;4.87;;;3.80;;
19800;SDS011;10060;48.274;12.214;2023-12-20T08:54:02;3.70;;;3.40;;
19800;SDS011;10060;48.274;12.214;2023-12-20T08:57:09;3.77;;;3.07;;
19800;SDS011;10060;48.274;12.214;2023-12-20T09:00:11;3.47;;;3.17;;
19800;SDS011;10060;48.274;12.214;2023-12-20T09:03:14;4.13;;;3.60;;
19800;SDS011;10060;48.274;12.214;2023-12-20T09:06:16;3.47;;;3.17;;
19800;SDS011;10060;48.274;12.214;2023-12-20T09:09:18;3.53;;;3.17;;
19800;SDS011;10060;48.274;12.214;2023-12-20T09:12:22;3.13;;;2.70;;
19800;SDS011;10060;48.274;12.214;2023-12-20T09:15:24;3.03;;;2.77;;
19800;SDS011;10060;48.274;12.214;2023-12-20T09:18:26;3.27;;;2.80;;
19800;SDS011;10060;48.274;12.214;2023-12-20T09:21:28;3.00;;;2.70;;
19800;SDS011;10060;48.274;12.214;2023-12-20T09:24:31;4.43;;;3.07;;
19800;SDS011;10060;48.274;12.214;2023-12-20T09:27:34;18.77;;;7.87;;
19800;SDS011;10060;48.274;12.214;2023-12-20T09:30:36;3.60;;;2.90;;
19800;SDS011;10060;48.274;12.214;2023-12-20T09:33:40;4.10;;;2.77;;
19800;SDS011;10060;48.274;12.214;2023-12-20T09:36:42;4.07;;;3.00;;
19800;SDS011;10060;48.274;12.214;2023-12-20T09:39:46;3.40;;;3.10;;
19800;SDS011;10060;48.274;12.214;2023-12-20T09:42:51;2.80;;;2.60;;
19800;SDS011;10060;48.274;12.214;2023-12-20T09:45:56;3.00;;;2.80;;
19800;SDS011;10060;48.274;12.214;2023-12-20T09:49:02;2.90;;;2.70;;
19800;SDS011;10060;48.274;12.214;2023-12-20T09:52:05;2.87;;;2.67;;
19800;SDS011;10060;48.274;12.214;2023-12-20T09:55:08;2.83;;;2.63;;
19800;SDS011;10060;48.274;12.214;2023-12-20T09:58:12;3.70;;;2.67;;
19800;SDS011;10060;48.274;12.214;2023-12-20T10:01:14;3.10;;;2.90;;
19800;SDS011;10060;48.274;12.214;2023-12-20T10:04:16;3.07;;;2.87;;
19800;SDS011;10060;48.274;12.214;2023-12-20T10:07:20;4.33;;;2.90;;
19800;SDS011;10060;48.274;12.214;2023-12-20T10:10:22;3.33;;;2.60;;
19800;SDS011;10060;48.274;12.214;2023-12-20T10:13:26;3.33;;;3.03;;
19800;SDS011;10060;48.274;12.214;2023-12-20T10:16:28;2.70;;;2.50;;
19800;SDS011;10060;48.274;12.214;2023-12-20T10:19:30;2.87;;;2.60;;
19800;SDS011;10060;48.274;12.214;2023-12-20T10:22:32;3.43;;;2.90;;
19800;SDS011;10060;48.274;12.214;2023-12-20T10:25:34;3.27;;;3.00;;
19800;SDS011;10060;48.274;12.214;2023-12-20T10:28:38;3.83;;;2.77;;
19800;SDS011;10060;48.274;12.214;2023-12-20T10:31:40;3.83;;;2.80;;
19800;SDS011;10060;48.274;12.214;2023-12-20T10:34:42;3.40;;;3.10;;
19800;SDS011;10060;48.274;12.214;2023-12-20T10:37:44;3.73;;;2.73;;
19800;SDS011;10060;48.274;12.214;2023-12-20T10:40:46;4.07;;;3.13;;
19800;SDS011;10060;48.274;12.214;2023-12-20T10:43:50;3.57;;;3.20;;
19800;SDS011;10060;48.274;12.214;2023-12-20T10:46:53;3.47;;;3.17;;
19800;SDS011;10060;48.274;12.214;2023-12-20T10:49:59;6.07;;;3.50;;
19800;SDS011;10060;48.274;12.214;2023-12-20T10:53:01;3.40;;;3.10;;
19800;SDS011;10060;48.274;12.214;2023-12-20T10:56:04;3.53;;;3.03;;
19800;SDS011;10060;48.274;12.214;2023-12-20T10:59:08;4.17;;;3.10;;
19800;SDS011;10060;48.274;12.214;2023-12-20T11:02:12;3.30;;;3.00;;
19800;SDS011;10060;48.274;12.214;2023-12-20T11:05:17;5.00;;;3.90;;
19800;SDS011;10060;48.274;12.214;2023-12-20T11:08:22;4.10;;;3.50;;
19800;SDS011;10060;48.274;12.214;2023-12-20T11:11:27;3.97;;;3.47;;
19800;SDS011;10060;48.274;12.214;2023-12-20T11:14:34;4.43;;;3.53;;
19800;SDS011;10060;48.274;12.214;2023-12-20T11:17:38;3.90;;;3.53;;
19800;SDS011;10060;48.274;12.214;2023-12-20T11:20:41;4.40;;;3.57;;
19800;SDS011;10060;48.274;12.214;2023-12-20T11:23:43;3.93;;;3.23;;
19800;SDS011;10060;48.274;12.214;2023-12-20T11:26:46;3.03;;;2.73;;
19800;SDS011;10060;48.274;12.214;2023-12-20T11:29:52;4.10;;;3.50;;
19800;SDS011;10060;48.274;12.214;2023-12-20T11:32:54;4.23;;;3.47;;
19800;SDS011;10060;48.274;12.214;2023-12-20T11:35:57;3.97;;;3.57;;
19800;SDS011;10060;48.274;12.214;2023-12-20T11:38:59;3.30;;;3.00;;
19800;SDS011;10060;48.274;12.214;2023-12-20T11:42:06;3.63;;;3.33;;
19800;SDS011;10060;48.274;12.214;2023-12-20T11:45:10;3.60;;;3.30;;
19800;SDS011;10060;48.274;12.214;2023-12-20T11:48:14;4.20;;;2.97;;
19800;SDS011;10060;48.274;12.214;2023-12-20T11:51:17;3.57;;;3.00;;
19800;SDS011;10060;48.274;12.214;2023-12-20T11:54:19;3.23;;;2.93;;
19800;SDS011;10060;48.274;12.214;2023-12-20T11:57:21;3.30;;;3.00;;
19800;SDS011;10060;48.274;12.214;2023-12-20T12:00:24;5.20;;;3.23;;
19800;SDS011;10060;48.274;12.214;2023-12-20T12:03:27;3.50;;;2.97;;
19800;SDS011;10060;48.274;12.214;2023-12-20T12:06:29;3.37;;;2.63;;
19800;SDS011;10060;48.274;12.214;2023-12-20T12:09:31;2.50;;;2.30;;
19800;SDS011;10060;48.274;12.214;2023-12-20T12:12:33;2.20;;;2.03;;
19800;SDS011;10060;48.274;12.214;2023-12-20T12:15:37;2.93;;;2.63;;
19800;SDS011;10060;48.274;12.214;2023-12-20T12:18:39;3.00;;;2.70;;
19800;SDS011;10060;48.274;12.214;2023-12-20T12:21:42;3.27;;;2.97;;
19800;SDS011;10060;48.274;12.214;2023-12-20T12:24:44;5.43;;;2.80;;
19800;SDS011;10060;48.274;12.214;2023-12-20T12:27:46;3.47;;;3.17;;
19800;SDS011;10060;48.274;12.214;2023-12-20T12:30:57;6.80;;;2.60;;
19800;SDS011;10060;48.274;12.214;2023-12-20T12:33:59;2.80;;;2.30;;
19800;SDS011;10060;48.274;12.214;2023-12-20T12:37:01;3.10;;;2.87;;
19800;SDS011;10060;48.274;12.214;2023-12-20T12:40:04;4.03;;;3.20;;
19800;SDS011;10060;48.274;12.214;2023-12-20T12:43:06;3.50;;;3.20;;
19800;SDS011;10060;48.274;12.214;2023-12-20T12:46:10;3.67;;;3.37;;
19800;SDS011;10060;48.274;12.214;2023-12-20T12:49:12;3.93;;;3.60;;
19800;SDS011;10060;48.274;12.214;2023-12-20T12:52:14;4.13;;;3.73;;
19800;SDS011;10060;48.274;12.214;2023-12-20T12:55:16;4.00;;;3.60;;
19800;SDS011;10060;48.274;12.214;2023-12-20T12:58:18;3.70;;;3.13;;
19800;SDS011;10060;48.274;12.214;2023-12-20T13:01:21;3.87;;;3.47;;
19800;SDS011;10060;48.274;12.214;2023-12-20T13:04:23;4.37;;;3.93;;
19800;SDS011;10060;48.274;12.214;2023-12-20T13:07:26;5.17;;;3.17;;
19800;SDS011;10060;48.274;12.214;2023-12-20T13:10:28;4.57;;;3.60;;
19800;SDS011;10060;48.274;12.214;2023-12-20T13:13:30;5.40;;;3.83;;
19800;SDS011;10060;48.274;12.214;2023-12-20T13:16:33;4.00;;;3.47;;
19800;SDS011;10060;48.274;12.214;2023-12-20T13:19:35;4.30;;;3.40;;
19800;SDS011;10060;48.274;12.214;2023-12-20T13:22:37;3.77;;;3.47;;
19800;SDS011;10060;48.274;12.214;2023-12-20T13:25:40;4.50;;;3.93;;
19800;SDS011;10060;48.274;12.214;2023-12-20T13:28:42;4.50;;;3.83;;
19800;SDS011;10060;48.274;12.214;2023-12-20T13:31:45;4.43;;;3.87;;
19800;SDS011;10060;48.274;12.214;2023-12-20T13:34:47;3.70;;;3.30;;
19800;SDS011;10060;48.274;12.214;2023-12-20T13:37:50;4.27;;;3.87;;
19800;SDS011;10060;48.274;12.214;2023-12-20T13:40:52;5.27;;;4.00;;
19800;SDS011;10060;48.274;12.214;2023-12-20T13:43:54;4.80;;;3.73;;
19800;SDS011;10060;48.274;12.214;2023-12-20T13:46:57;4.37;;;3.27;;
19800;SDS011;10060;48.274;12.214;2023-12-20T13:49:59;4.00;;;3.60;;
19800;SDS011;10060;48.274;12.214;2023-12-20T13:53:02;4.40;;;3.07;;
19800;SDS011;10060;48.274;12.214;2023-12-20T13:56:05;3.40;;;3.10;;
19800;SDS011;10060;48.274;12.214;2023-12-20T13:59:07;6.73;;;3.10;;
19800;SDS011;10060;48.274;12.214;2023-12-20T14:02:10;3.83;;;2.97;;
19800;SDS011;10060;48.274;12.214;2023-12-20T14:05:13;3.53;;;2.90;;
19800;SDS011;10060;48.274;12.214;2023-12-20T14:08:17;5.40;;;4.10;;
19800;SDS011;10060;48.274;12.214;2023-12-20T14:11:19;3.73;;;2.77;;
19800;SDS011;10060;48.274;12.214;2023-12-20T14:14:21;3.10;;;2.70;;
19800;SDS011;10060;48.274;12.214;2023-12-20T14:17:25;2.90;;;2.70;;
19800;SDS011;10060;48.274;12.214;2023-12-20T14:20:27;7.30;;;2.90;;
19800;SDS011;10060;48.274;12.214;2023-12-20T14:23:29;3.43;;;3.13;;
19800;SDS011;10060;48.274;12.214;2023-12-20T14:26:33;3.73;;;3.33;;
19800;SDS011;10060;48.274;12.214;2023-12-20T14:29:37;3.47;;;3.10;;
19800;SDS011;10060;48.274;12.214;2023-12-20T14:32:40;4.43;;;3.20;;
19800;SDS011;10060;48.274;12.214;2023-12-20T14:35:42;4.70;;;3.30;;
19800;SDS011;10060;48.274;12.214;2023-12-20T14:38:45;6.37;;;3.40;;
19800;SDS011;10060;48.274;12.214;2023-12-20T14:41:48;3.87;;;3.23;;
19800;SDS011;10060;48.274;12.214;2023-12-20T14:44:50;4.57;;;3.00;;
19800;SDS011;10060;48.274;12.214;2023-12-20T14:47:55;5.33;;;2.33;;
19800;SDS011;10060;48.274;12.214;2023-12-20T14:50:58;7.67;;;2.90;;
19800;SDS011;10060;48.274;12.214;2023-12-20T14:54:01;4.43;;;2.60;;
19800;SDS011;10060;48.274;12.214;2023-12-20T14:57:03;11.93;;;2.80;;
19800;SDS011;10060;48.274;12.214;2023-12-20T15:00:05;3.03;;;2.70;;
19800;SDS011;10060;48.274;12.214;2023-12-20T15:03:09;3.87;;;2.80;;
19800;SDS011;10060;48.274;12.214;2023-12-20T15:06:11;5.37;;;2.60;;
19800;SDS011;10060;48.274;12.214;2023-12-20T15:09:13;3.63;;;3.20;;
19800;SDS011;10060;48.274;12.214;2023-12-20T15:12:15;4.07;;;3.00;;
19800;SDS011;10060;48.274;12.214;2023-12-20T15:15:17;4.20;;;2.80;;
19800;SDS011;10060;48.274;12.214;2023-12-20T15:18:21;3.70;;;2.53;;
19800;SDS011;10060;48.274;12.214;2023-12-20T15:21:23;4.57;;;2.60;;
19800;SDS011;10060;48.274;12.214;2023-12-20T15:24:31;3.17;;;2.60;;
19800;SDS011;10060;48.274;12.214;2023-12-20T15:27:38;4.50;;;2.70;;
19800;SDS011;10060;48.274;12.214;2023-12-20T15:30:40;6.30;;;2.77;;
19800;SDS011;10060;48.274;12.214;2023-12-20T15:33:44;2.90;;;2.60;;
19800;SDS011;10060;48.274;12.214;2023-12-20T15:36:46;6.20;;;2.60;;
19800;SDS011;10060;48.274;12.214;2023-12-20T15:39:48;3.17;;;2.30;;
19800;SDS011;10060;48.274;12.214;2023-12-20T15:42:50;4.33;;;2.80;;
19800;SDS011;10060;48.274;12.214;2023-12-20T15:45:53;6.60;;;2.57;;
19800;SDS011;10060;48.274;12.214;2023-12-20T15:48:56;6.20;;;2.93;;
19800;SDS011;10060;48.274;12.214;2023-12-20T15:51:58;4.00;;;2.23;;
19800;SDS011;10060;48.274;12.214;2023-12-20T15:55:00;2.77;;;2.40;;
19800;SDS011;10060;48.274;12.214;2023-12-20T15:58:03;7.67;;;2.53;;
19800;SDS011;10060;48.274;12.214;2023-12-20T16:01:05;6.23;;;2.80;;
19800;SDS011;10060;48.274;12.214;2023-12-20T16:04:09;3.37;;;2.87;;
19800;SDS011;10060;48.274;12.214;2023-12-20T16:07:11;3.17;;;2.67;;
19800;SDS011;10060;48.274;12.214;2023-12-20T16:10:13;5.43;;;3.33;;
19800;SDS011;10060;48.274;12.214;2023-12-20T16:13:15;4.40;;;3.00;;
19800;SDS011;10060;48.274;12.214;2023-12-20T16:16:17;5.70;;;3.17;;
19800;SDS011;10060;48.274;12.214;2023-12-20T16:19:20;9.53;;;3.10;;
19800;SDS011;10060;48.274;12.214;2023-12-20T16:22:22;6.03;;;3.23;;
19800;SDS011;10060;48.274;12.214;2023-12-20T16:25:26;5.17;;;3.93;;
19800;SDS011;10060;48.274;12.214;2023-12-20T16:28:28;4.80;;;3.50;;
19800;SDS011;10060;48.274;12.214;2023-12-20T16:31:30;7.87;;;3.73;;
19800;SDS011;10060;48.274;12.214;2023-12-20T16:34:34;5.60;;;3.60;;
19800;SDS011;10060;48.274;12.214;2023-12-20T16:37:36;6.50;;;3.93;;
19800;SDS011;10060;48.274;12.214;2023-12-20T16:40:38;6.50;;;3.97;;
19800;SDS011;10060;48.274;12.214;2023-12-20T16:43:40;5.90;;;4.47;;
19800;SDS011;10060;48.274;12.214;2023-12-20T16:46:43;7.17;;;4.50;;
19800;SDS011;10060;48.274;12.214;2023-12-20T16:49:46;9.23;;;4.20;;
19800;SDS011;10060;48.274;12.214;2023-12-20T16:52:48;5.70;;;4.00;;
19800;SDS011;10060;48.274;12.214;2023-12-20T16:55:52;6.03;;;3.80;;
19800;SDS011;10060;48.274;12.214;2023-12-20T16:58:54;6.67;;;4.20;;
19800;SDS011;10060;48.274;12.214;2023-12-20T17:01:56;6.07;;;4.20;;
19800;SDS011;10060;48.274;12.214;2023-12-20T17:05:03;8.00;;;3.87;;
19800;SDS011;10060;48.274;12.214;2023-12-20T17:08:05;7.50;;;4.27;;
19800;SDS011;10060;48.274;12.214;2023-12-20T17:11:07;5.57;;;3.60;;
19800;SDS011;10060;48.274;12.214;2023-12-20T17:14:10;4.77;;;3.50;;
19800;SDS011;10060;48.274;12.214;2023-12-20T17:17:13;5.63;;;3.53;;
19800;SDS011;10060;48.274;12.214;2023-12-20T17:20:16;4.77;;;3.20;;
19800;SDS011;10060;48.274;12.214;2023-12-20T17:23:18;4.00;;;3.57;;
19800;SDS011;10060;48.274;12.214;2023-12-20T17:26:20;5.20;;;3.10;;
19800;SDS011;10060;48.274;12.214;2023-12-20T17:29:22;4.63;;;3.10;;
19800;SDS011;10060;48.274;12.214;2023-12-20T17:32:24;5.83;;;3.03;;
19800;SDS011;10060;48.274;12.214;2023-12-20T17:35:28;5.63;;;3.27;;
19800;SDS011;10060;48.274;12.214;2023-12-20T17:38:30;5.93;;;3.03;;
19800;SDS011;10060;48.274;12.214;2023-12-20T17:41:36;4.27;;;3.00;;
19800;SDS011;10060;48.274;12.214;2023-12-20T17:44:38;3.00;;;2.70;;
19800;SDS011;10060;48.274;12.214;2023-12-20T17:47:40;4.30;;;2.90;;
19800;SDS011;10060;48.274;12.214;2023-12-20T17:50:45;6.30;;;3.00;;
19800;SDS011;10060;48.274;12.214;2023-12-20T17:53:47;2.93;;;2.70;;
19800;SDS011;10060;48.274;12.214;2023-12-20T17:56:50;3.27;;;2.97;;
19800;SDS011;10060;48.274;12.214;2023-12-20T17:59:53;4.07;;;2.77;;
19800;SDS011;10060;48.274;12.214;2023-12-20T18:02:55;3.03;;;2.73;;
19800;SDS011;10060;48.274;12.214;2023-12-20T18:05:58;5.40;;;3.10;;